Pirai, Brazil
Current Conditions -  °F | °C
As of 12:00 AM on Monday 22 Dec 2014 (Local Time) from SBSC Reporting Station
Scattered Clouds Scattered Clouds  
Wind Chill: 84°   Ceiling: Unl
Heat Index: 87°   Visibility: 6mi
Dew Point: 68°   Wind: 12mph
Humidity: 58%   Direction: 10°N
Pressure: 29.8"   Gusts: NA
Location:  22.63°S, 43.9°W
Report Text: SBSC 220200Z 01010KT 9999 SCT025 29/20 Q1009
Loading
Personal Weather Stations






























Interactive Weather Map New forecast layout! Learn more

10-Day Weather Forecast

Advertisements
Track Severe Weather on mobile